sensor_id;sensor_type;location;lat;lon;timestamp;P1;durP1;ratioP1;P2;durP2;ratioP2
9547;SDS011;4812;51.992;8.648;2022-11-20T00:00:21;24.93;;;22.53;;
9547;SDS011;4812;51.992;8.648;2022-11-20T00:02:49;24.67;;;22.03;;
9547;SDS011;4812;51.992;8.648;2022-11-20T00:05:17;23.47;;;21.27;;
9547;SDS011;4812;51.992;8.648;2022-11-20T00:07:45;24.13;;;21.67;;
9547;SDS011;4812;51.992;8.648;2022-11-20T00:10:12;23.40;;;21.30;;
9547;SDS011;4812;51.992;8.648;2022-11-20T00:12:40;24.30;;;21.77;;
9547;SDS011;4812;51.992;8.648;2022-11-20T00:15:08;23.97;;;21.47;;
9547;SDS011;4812;51.992;8.648;2022-11-20T00:17:37;23.40;;;21.10;;
9547;SDS011;4812;51.992;8.648;2022-11-20T00:20:05;24.60;;;22.07;;
9547;SDS011;4812;51.992;8.648;2022-11-20T00:22:33;31.88;;;28.25;;
9547;SDS011;4812;51.992;8.648;2022-11-20T00:25:00;25.13;;;22.73;;
9547;SDS011;4812;51.992;8.648;2022-11-20T00:27:28;24.23;;;21.93;;
9547;SDS011;4812;51.992;8.648;2022-11-20T00:29:55;24.63;;;22.23;;
9547;SDS011;4812;51.992;8.648;2022-11-20T00:32:23;24.73;;;22.33;;
9547;SDS011;4812;51.992;8.648;2022-11-20T00:34:52;24.53;;;22.10;;
9547;SDS011;4812;51.992;8.648;2022-11-20T00:37:19;22.10;;;20.00;;
9547;SDS011;4812;51.992;8.648;2022-11-20T00:39:47;22.87;;;20.60;;
9547;SDS011;4812;51.992;8.648;2022-11-20T00:42:14;22.67;;;20.70;;
9547;SDS011;4812;51.992;8.648;2022-11-20T00:44:41;25.47;;;22.50;;
9547;SDS011;4812;51.992;8.648;2022-11-20T00:47:09;24.73;;;22.10;;
9547;SDS011;4812;51.992;8.648;2022-11-20T00:49:36;27.87;;;22.23;;
9547;SDS011;4812;51.992;8.648;2022-11-20T00:52:05;22.20;;;20.30;;
9547;SDS011;4812;51.992;8.648;2022-11-20T00:54:34;24.07;;;21.50;;
9547;SDS011;4812;51.992;8.648;2022-11-20T00:57:01;22.57;;;20.40;;
9547;SDS011;4812;51.992;8.648;2022-11-20T00:59:28;23.47;;;21.17;;
9547;SDS011;4812;51.992;8.648;2022-11-20T01:01:56;24.33;;;21.83;;
9547;SDS011;4812;51.992;8.648;2022-11-20T01:04:23;23.43;;;21.43;;
9547;SDS011;4812;51.992;8.648;2022-11-20T01:06:51;24.90;;;22.50;;
9547;SDS011;4812;51.992;8.648;2022-11-20T01:09:20;23.60;;;21.50;;
9547;SDS011;4812;51.992;8.648;2022-11-20T01:11:47;22.47;;;20.57;;
9547;SDS011;4812;51.992;8.648;2022-11-20T01:14:17;23.90;;;21.77;;
9547;SDS011;4812;51.992;8.648;2022-11-20T01:16:46;23.60;;;21.50;;
9547;SDS011;4812;51.992;8.648;2022-11-20T01:19:16;25.37;;;22.50;;
9547;SDS011;4812;51.992;8.648;2022-11-20T01:21:46;25.00;;;22.57;;
9547;SDS011;4812;51.992;8.648;2022-11-20T01:24:16;24.00;;;21.67;;
9547;SDS011;4812;51.992;8.648;2022-11-20T01:26:46;23.67;;;21.40;;
9547;SDS011;4812;51.992;8.648;2022-11-20T01:29:16;23.13;;;20.77;;
9547;SDS011;4812;51.992;8.648;2022-11-20T01:31:45;24.47;;;21.27;;
9547;SDS011;4812;51.992;8.648;2022-11-20T01:34:14;22.47;;;20.40;;
9547;SDS011;4812;51.992;8.648;2022-11-20T01:36:42;21.50;;;19.53;;
9547;SDS011;4812;51.992;8.648;2022-11-20T01:39:10;22.97;;;20.97;;
9547;SDS011;4812;51.992;8.648;2022-11-20T01:41:40;22.67;;;20.87;;
9547;SDS011;4812;51.992;8.648;2022-11-20T01:44:53;23.77;;;21.67;;
9547;SDS011;4812;51.992;8.648;2022-11-20T01:47:30;23.30;;;21.27;;
9547;SDS011;4812;51.992;8.648;2022-11-20T01:50:03;23.37;;;21.43;;
9547;SDS011;4812;51.992;8.648;2022-11-20T01:52:34;23.87;;;21.07;;
9547;SDS011;4812;51.992;8.648;2022-11-20T01:55:04;24.60;;;22.13;;
9547;SDS011;4812;51.992;8.648;2022-11-20T01:57:34;23.97;;;21.53;;
9547;SDS011;4812;51.992;8.648;2022-11-20T02:00:05;23.47;;;21.37;;
9547;SDS011;4812;51.992;8.648;2022-11-20T02:02:38;21.87;;;20.10;;
9547;SDS011;4812;51.992;8.648;2022-11-20T02:05:12;23.03;;;20.93;;
9547;SDS011;4812;51.992;8.648;2022-11-20T02:07:44;23.07;;;20.67;;
9547;SDS011;4812;51.992;8.648;2022-11-20T02:10:11;23.37;;;20.80;;
9547;SDS011;4812;51.992;8.648;2022-11-20T02:12:39;22.87;;;21.03;;
9547;SDS011;4812;51.992;8.648;2022-11-20T02:15:31;22.50;;;20.13;;
9547;SDS011;4812;51.992;8.648;2022-11-20T02:17:59;23.90;;;21.73;;
9547;SDS011;4812;51.992;8.648;2022-11-20T02:20:27;23.17;;;20.93;;
9547;SDS011;4812;51.992;8.648;2022-11-20T02:22:55;23.27;;;20.87;;
9547;SDS011;4812;51.992;8.648;2022-11-20T02:25:25;23.03;;;20.77;;
9547;SDS011;4812;51.992;8.648;2022-11-20T02:27:54;22.93;;;20.93;;
9547;SDS011;4812;51.992;8.648;2022-11-20T02:30:21;23.77;;;21.37;;
9547;SDS011;4812;51.992;8.648;2022-11-20T02:32:49;24.97;;;22.50;;
9547;SDS011;4812;51.992;8.648;2022-11-20T02:38:07;23.73;;;21.50;;
9547;SDS011;4812;51.992;8.648;2022-11-20T02:40:36;25.00;;;22.37;;
9547;SDS011;4812;51.992;8.648;2022-11-20T02:43:04;23.87;;;21.63;;
9547;SDS011;4812;51.992;8.648;2022-11-20T02:45:32;23.00;;;20.87;;
9547;SDS011;4812;51.992;8.648;2022-11-20T02:47:59;20.77;;;18.87;;
9547;SDS011;4812;51.992;8.648;2022-11-20T02:50:27;22.67;;;20.57;;
9547;SDS011;4812;51.992;8.648;2022-11-20T02:52:54;23.27;;;21.03;;
9547;SDS011;4812;51.992;8.648;2022-11-20T02:55:22;22.70;;;20.67;;
9547;SDS011;4812;51.992;8.648;2022-11-20T02:57:50;24.03;;;21.73;;
9547;SDS011;4812;51.992;8.648;2022-11-20T03:00:18;23.03;;;21.00;;
9547;SDS011;4812;51.992;8.648;2022-11-20T03:02:46;22.43;;;20.40;;
9547;SDS011;4812;51.992;8.648;2022-11-20T03:05:13;23.00;;;20.97;;
9547;SDS011;4812;51.992;8.648;2022-11-20T03:07:41;22.93;;;20.77;;
9547;SDS011;4812;51.992;8.648;2022-11-20T03:10:08;24.17;;;21.93;;
9547;SDS011;4812;51.992;8.648;2022-11-20T03:12:36;23.13;;;21.13;;
9547;SDS011;4812;51.992;8.648;2022-11-20T03:15:05;22.80;;;20.70;;
9547;SDS011;4812;51.992;8.648;2022-11-20T03:17:34;22.77;;;20.57;;
9547;SDS011;4812;51.992;8.648;2022-11-20T03:20:06;24.00;;;21.60;;
9547;SDS011;4812;51.992;8.648;2022-11-20T03:22:35;23.63;;;21.73;;
9547;SDS011;4812;51.992;8.648;2022-11-20T03:25:02;22.43;;;20.53;;
9547;SDS011;4812;51.992;8.648;2022-11-20T03:27:32;24.03;;;21.80;;
9547;SDS011;4812;51.992;8.648;2022-11-20T03:30:00;24.37;;;22.10;;
9547;SDS011;4812;51.992;8.648;2022-11-20T03:32:29;24.27;;;22.03;;
9547;SDS011;4812;51.992;8.648;2022-11-20T03:34:57;24.77;;;22.30;;
9547;SDS011;4812;51.992;8.648;2022-11-20T03:37:25;25.33;;;22.30;;
9547;SDS011;4812;51.992;8.648;2022-11-20T03:39:52;24.20;;;22.00;;
9547;SDS011;4812;51.992;8.648;2022-11-20T03:42:20;24.80;;;22.50;;
9547;SDS011;4812;51.992;8.648;2022-11-20T03:45:05;24.27;;;21.93;;
9547;SDS011;4812;51.992;8.648;2022-11-20T03:47:34;24.60;;;22.33;;
9547;SDS011;4812;51.992;8.648;2022-11-20T03:50:04;24.93;;;22.73;;
9547;SDS011;4812;51.992;8.648;2022-11-20T03:52:32;23.93;;;21.80;;
9547;SDS011;4812;51.992;8.648;2022-11-20T03:54:59;22.80;;;20.77;;
9547;SDS011;4812;51.992;8.648;2022-11-20T03:57:27;25.40;;;22.90;;
9547;SDS011;4812;51.992;8.648;2022-11-20T03:59:54;23.83;;;21.73;;
9547;SDS011;4812;51.992;8.648;2022-11-20T04:02:22;23.83;;;21.70;;
9547;SDS011;4812;51.992;8.648;2022-11-20T04:04:50;24.93;;;22.67;;
9547;SDS011;4812;51.992;8.648;2022-11-20T04:07:18;23.70;;;21.77;;
9547;SDS011;4812;51.992;8.648;2022-11-20T04:09:45;25.47;;;22.77;;
9547;SDS011;4812;51.992;8.648;2022-11-20T04:12:13;25.70;;;23.10;;
9547;SDS011;4812;51.992;8.648;2022-11-20T04:14:40;24.37;;;22.17;;
9547;SDS011;4812;51.992;8.648;2022-11-20T04:17:08;25.37;;;23.03;;
9547;SDS011;4812;51.992;8.648;2022-11-20T04:19:35;25.07;;;22.77;;
9547;SDS011;4812;51.992;8.648;2022-11-20T04:22:04;24.10;;;21.83;;
9547;SDS011;4812;51.992;8.648;2022-11-20T04:24:31;24.17;;;22.17;;
9547;SDS011;4812;51.992;8.648;2022-11-20T04:26:59;25.33;;;22.93;;
9547;SDS011;4812;51.992;8.648;2022-11-20T04:29:26;24.20;;;22.20;;
9547;SDS011;4812;51.992;8.648;2022-11-20T04:31:53;23.90;;;21.90;;
9547;SDS011;4812;51.992;8.648;2022-11-20T04:34:21;24.10;;;22.00;;
9547;SDS011;4812;51.992;8.648;2022-11-20T04:36:48;24.70;;;22.47;;
9547;SDS011;4812;51.992;8.648;2022-11-20T04:39:17;23.87;;;21.70;;
9547;SDS011;4812;51.992;8.648;2022-11-20T04:41:45;24.23;;;22.13;;
9547;SDS011;4812;51.992;8.648;2022-11-20T04:44:13;23.27;;;21.07;;
9547;SDS011;4812;51.992;8.648;2022-11-20T04:46:41;22.83;;;20.93;;
9547;SDS011;4812;51.992;8.648;2022-11-20T04:49:10;23.90;;;21.47;;
9547;SDS011;4812;51.992;8.648;2022-11-20T04:51:37;23.63;;;21.47;;
9547;SDS011;4812;51.992;8.648;2022-11-20T04:54:05;23.33;;;21.20;;
9547;SDS011;4812;51.992;8.648;2022-11-20T04:56:34;23.20;;;21.07;;
9547;SDS011;4812;51.992;8.648;2022-11-20T04:59:02;23.47;;;21.13;;
9547;SDS011;4812;51.992;8.648;2022-11-20T05:01:30;23.97;;;21.40;;
9547;SDS011;4812;51.992;8.648;2022-11-20T05:03:58;25.50;;;22.97;;
9547;SDS011;4812;51.992;8.648;2022-11-20T05:06:26;25.63;;;23.17;;
9547;SDS011;4812;51.992;8.648;2022-11-20T05:08:53;23.53;;;21.60;;
9547;SDS011;4812;51.992;8.648;2022-11-20T05:11:21;23.60;;;21.47;;
9547;SDS011;4812;51.992;8.648;2022-11-20T05:13:50;23.13;;;21.30;;
9547;SDS011;4812;51.992;8.648;2022-11-20T05:16:19;23.70;;;21.50;;
9547;SDS011;4812;51.992;8.648;2022-11-20T05:18:47;24.07;;;22.07;;
9547;SDS011;4812;51.992;8.648;2022-11-20T05:21:16;24.23;;;22.30;;
9547;SDS011;4812;51.992;8.648;2022-11-20T05:23:44;25.13;;;22.70;;
9547;SDS011;4812;51.992;8.648;2022-11-20T05:26:12;24.50;;;22.23;;
9547;SDS011;4812;51.992;8.648;2022-11-20T05:28:40;23.60;;;21.57;;
9547;SDS011;4812;51.992;8.648;2022-11-20T05:31:10;24.13;;;22.00;;
9547;SDS011;4812;51.992;8.648;2022-11-20T05:33:39;24.50;;;22.03;;
9547;SDS011;4812;51.992;8.648;2022-11-20T05:36:07;25.50;;;23.10;;
9547;SDS011;4812;51.992;8.648;2022-11-20T05:38:35;25.27;;;23.17;;
9547;SDS011;4812;51.992;8.648;2022-11-20T05:41:04;30.27;;;27.08;;
9547;SDS011;4812;51.992;8.648;2022-11-20T05:43:32;26.70;;;24.10;;
9547;SDS011;4812;51.992;8.648;2022-11-20T05:46:01;25.83;;;23.33;;
9547;SDS011;4812;51.992;8.648;2022-11-20T05:48:30;24.67;;;22.63;;
9547;SDS011;4812;51.992;8.648;2022-11-20T05:50:57;23.07;;;21.20;;
9547;SDS011;4812;51.992;8.648;2022-11-20T05:53:25;23.47;;;21.37;;
9547;SDS011;4812;51.992;8.648;2022-11-20T05:55:56;25.03;;;22.70;;
9547;SDS011;4812;51.992;8.648;2022-11-20T05:58:24;23.80;;;21.77;;
9547;SDS011;4812;51.992;8.648;2022-11-20T06:00:52;23.77;;;21.60;;
9547;SDS011;4812;51.992;8.648;2022-11-20T06:03:19;23.57;;;21.43;;
9547;SDS011;4812;51.992;8.648;2022-11-20T06:05:48;22.43;;;20.43;;
9547;SDS011;4812;51.992;8.648;2022-11-20T06:08:16;23.17;;;21.20;;
9547;SDS011;4812;51.992;8.648;2022-11-20T06:10:43;23.70;;;21.60;;
9547;SDS011;4812;51.992;8.648;2022-11-20T06:13:10;22.87;;;20.97;;
9547;SDS011;4812;51.992;8.648;2022-11-20T06:15:38;22.70;;;20.80;;
9547;SDS011;4812;51.992;8.648;2022-11-20T06:18:05;28.50;;;25.50;;
9547;SDS011;4812;51.992;8.648;2022-11-20T06:20:33;30.40;;;27.30;;
9547;SDS011;4812;51.992;8.648;2022-11-20T06:23:08;30.98;;;27.88;;
9547;SDS011;4812;51.992;8.648;2022-11-20T06:25:37;30.20;;;27.10;;
9547;SDS011;4812;51.992;8.648;2022-11-20T06:28:04;31.15;;;28.08;;
9547;SDS011;4812;51.992;8.648;2022-11-20T06:30:32;31.35;;;28.35;;
9547;SDS011;4812;51.992;8.648;2022-11-20T06:32:59;30.75;;;27.55;;
9547;SDS011;4812;51.992;8.648;2022-11-20T06:35:27;29.45;;;26.58;;
9547;SDS011;4812;51.992;8.648;2022-11-20T06:37:55;30.37;;;27.43;;
9547;SDS011;4812;51.992;8.648;2022-11-20T06:40:24;26.17;;;23.50;;
9547;SDS011;4812;51.992;8.648;2022-11-20T06:42:53;26.90;;;23.23;;
9547;SDS011;4812;51.992;8.648;2022-11-20T06:45:21;25.30;;;23.20;;
9547;SDS011;4812;51.992;8.648;2022-11-20T06:47:48;25.10;;;22.80;;
9547;SDS011;4812;51.992;8.648;2022-11-20T06:50:16;25.10;;;22.90;;
9547;SDS011;4812;51.992;8.648;2022-11-20T06:52:43;24.83;;;22.47;;
9547;SDS011;4812;51.992;8.648;2022-11-20T06:55:11;24.33;;;22.23;;
9547;SDS011;4812;51.992;8.648;2022-11-20T06:57:39;24.43;;;22.33;;
9547;SDS011;4812;51.992;8.648;2022-11-20T07:00:07;24.80;;;22.30;;
9547;SDS011;4812;51.992;8.648;2022-11-20T07:02:35;23.10;;;21.10;;
9547;SDS011;4812;51.992;8.648;2022-11-20T07:05:03;23.80;;;21.30;;
9547;SDS011;4812;51.992;8.648;2022-11-20T07:07:31;20.40;;;18.73;;
9547;SDS011;4812;51.992;8.648;2022-11-20T07:09:58;20.33;;;18.53;;
9547;SDS011;4812;51.992;8.648;2022-11-20T07:12:26;20.60;;;18.67;;
9547;SDS011;4812;51.992;8.648;2022-11-20T07:14:54;20.23;;;18.50;;
9547;SDS011;4812;51.992;8.648;2022-11-20T07:17:22;20.63;;;18.73;;
9547;SDS011;4812;51.992;8.648;2022-11-20T07:19:50;21.43;;;19.53;;
9547;SDS011;4812;51.992;8.648;2022-11-20T07:22:17;22.20;;;20.20;;
9547;SDS011;4812;51.992;8.648;2022-11-20T07:24:47;21.60;;;19.83;;
9547;SDS011;4812;51.992;8.648;2022-11-20T07:27:15;20.60;;;18.80;;
9547;SDS011;4812;51.992;8.648;2022-11-20T07:29:42;22.17;;;20.00;;
9547;SDS011;4812;51.992;8.648;2022-11-20T07:32:11;21.70;;;19.80;;
9547;SDS011;4812;51.992;8.648;2022-11-20T07:34:39;22.70;;;20.50;;
9547;SDS011;4812;51.992;8.648;2022-11-20T07:37:06;22.17;;;20.03;;
9547;SDS011;4812;51.992;8.648;2022-11-20T07:39:35;21.90;;;19.60;;
9547;SDS011;4812;51.992;8.648;2022-11-20T07:42:03;26.20;;;20.53;;
9547;SDS011;4812;51.992;8.648;2022-11-20T07:44:30;22.23;;;18.90;;
9547;SDS011;4812;51.992;8.648;2022-11-20T07:46:58;28.37;;;19.97;;
9547;SDS011;4812;51.992;8.648;2022-11-20T07:49:27;30.17;;;21.30;;
9547;SDS011;4812;51.992;8.648;2022-11-20T07:51:54;24.03;;;19.10;;
9547;SDS011;4812;51.992;8.648;2022-11-20T07:54:29;28.50;;;20.40;;
9547;SDS011;4812;51.992;8.648;2022-11-20T07:56:56;33.00;;;20.60;;
9547;SDS011;4812;51.992;8.648;2022-11-20T07:59:24;30.03;;;19.37;;
9547;SDS011;4812;51.992;8.648;2022-11-20T08:01:51;31.37;;;20.13;;
9547;SDS011;4812;51.992;8.648;2022-11-20T08:04:19;28.33;;;18.90;;
9547;SDS011;4812;51.992;8.648;2022-11-20T08:06:49;26.37;;;18.73;;
9547;SDS011;4812;51.992;8.648;2022-11-20T08:09:16;31.40;;;19.27;;
9547;SDS011;4812;51.992;8.648;2022-11-20T08:11:44;27.40;;;19.00;;
9547;SDS011;4812;51.992;8.648;2022-11-20T08:14:29;24.57;;;18.80;;
9547;SDS011;4812;51.992;8.648;2022-11-20T08:16:56;26.37;;;19.67;;
9547;SDS011;4812;51.992;8.648;2022-11-20T08:19:25;28.30;;;20.20;;
9547;SDS011;4812;51.992;8.648;2022-11-20T08:21:54;24.03;;;20.07;;
9547;SDS011;4812;51.992;8.648;2022-11-20T08:24:22;28.60;;;20.93;;
9547;SDS011;4812;51.992;8.648;2022-11-20T08:26:50;22.13;;;19.10;;
9547;SDS011;4812;51.992;8.648;2022-11-20T08:29:18;23.47;;;19.90;;
9547;SDS011;4812;51.992;8.648;2022-11-20T08:31:46;24.23;;;19.93;;
9547;SDS011;4812;51.992;8.648;2022-11-20T08:34:14;25.43;;;21.20;;
9547;SDS011;4812;51.992;8.648;2022-11-20T08:36:44;22.83;;;19.53;;
9547;SDS011;4812;51.992;8.648;2022-11-20T08:39:13;24.90;;;20.43;;
9547;SDS011;4812;51.992;8.648;2022-11-20T08:41:41;25.67;;;20.87;;
9547;SDS011;4812;51.992;8.648;2022-11-20T08:44:09;25.10;;;21.33;;
9547;SDS011;4812;51.992;8.648;2022-11-20T08:46:36;21.80;;;19.60;;
9547;SDS011;4812;51.992;8.648;2022-11-20T08:49:05;23.60;;;20.60;;
9547;SDS011;4812;51.992;8.648;2022-11-20T08:51:34;20.17;;;18.17;;
9547;SDS011;4812;51.992;8.648;2022-11-20T08:54:01;22.93;;;20.63;;
9547;SDS011;4812;51.992;8.648;2022-11-20T08:56:31;21.37;;;19.17;;
9547;SDS011;4812;51.992;8.648;2022-11-20T08:58:59;22.23;;;20.00;;
9547;SDS011;4812;51.992;8.648;2022-11-20T09:01:46;24.13;;;19.80;;
9547;SDS011;4812;51.992;8.648;2022-11-20T09:04:14;22.70;;;19.57;;
9547;SDS011;4812;51.992;8.648;2022-11-20T09:06:41;30.13;;;22.93;;
9547;SDS011;4812;51.992;8.648;2022-11-20T09:09:09;22.20;;;19.83;;
9547;SDS011;4812;51.992;8.648;2022-11-20T09:11:38;24.63;;;20.83;;
9547;SDS011;4812;51.992;8.648;2022-11-20T09:14:05;22.23;;;20.03;;
9547;SDS011;4812;51.992;8.648;2022-11-20T09:16:33;23.47;;;20.93;;
9547;SDS011;4812;51.992;8.648;2022-11-20T09:19:00;25.77;;;20.97;;
9547;SDS011;4812;51.992;8.648;2022-11-20T09:21:48;28.43;;;20.97;;
9547;SDS011;4812;51.992;8.648;2022-11-20T09:24:15;28.20;;;22.40;;
9547;SDS011;4812;51.992;8.648;2022-11-20T09:26:44;23.53;;;20.90;;
9547;SDS011;4812;51.992;8.648;2022-11-20T09:29:11;23.47;;;20.90;;
9547;SDS011;4812;51.992;8.648;2022-11-20T09:31:39;24.77;;;22.17;;
9547;SDS011;4812;51.992;8.648;2022-11-20T09:34:06;26.00;;;23.27;;
9547;SDS011;4812;51.992;8.648;2022-11-20T09:36:34;24.80;;;21.40;;
9547;SDS011;4812;51.992;8.648;2022-11-20T09:39:01;26.63;;;23.17;;
9547;SDS011;4812;51.992;8.648;2022-11-20T09:41:34;26.33;;;23.50;;
9547;SDS011;4812;51.992;8.648;2022-11-20T09:44:10;27.50;;;24.33;;
9547;SDS011;4812;51.992;8.648;2022-11-20T09:46:47;30.60;;;25.43;;
9547;SDS011;4812;51.992;8.648;2022-11-20T09:49:20;31.50;;;26.07;;
9547;SDS011;4812;51.992;8.648;2022-11-20T09:52:14;29.57;;;26.37;;
9547;SDS011;4812;51.992;8.648;2022-11-20T09:54:43;31.53;;;26.33;;
9547;SDS011;4812;51.992;8.648;2022-11-20T09:57:11;28.87;;;25.97;;
9547;SDS011;4812;51.992;8.648;2022-11-20T09:59:42;31.90;;;26.73;;
9547;SDS011;4812;51.992;8.648;2022-11-20T10:02:14;28.93;;;25.83;;
9547;SDS011;4812;51.992;8.648;2022-11-20T10:04:44;31.23;;;27.83;;
9547;SDS011;4812;51.992;8.648;2022-11-20T10:07:16;29.37;;;26.33;;
9547;SDS011;4812;51.992;8.648;2022-11-20T10:10:01;29.40;;;25.70;;
9547;SDS011;4812;51.992;8.648;2022-11-20T10:12:31;29.73;;;26.70;;
9547;SDS011;4812;51.992;8.648;2022-11-20T10:15:10;30.90;;;27.57;;
9547;SDS011;4812;51.992;8.648;2022-11-20T10:18:04;31.97;;;28.63;;
9547;SDS011;4812;51.992;8.648;2022-11-20T10:20:39;31.90;;;28.07;;
9547;SDS011;4812;51.992;8.648;2022-11-20T10:23:16;31.53;;;28.03;;
9547;SDS011;4812;51.992;8.648;2022-11-20T10:25:53;31.93;;;28.63;;
9547;SDS011;4812;51.992;8.648;2022-11-20T10:28:26;34.40;;;30.83;;
9547;SDS011;4812;51.992;8.648;2022-11-20T10:30:59;31.63;;;28.43;;
9547;SDS011;4812;51.992;8.648;2022-11-20T10:33:29;29.83;;;26.57;;
9547;SDS011;4812;51.992;8.648;2022-11-20T10:36:19;27.67;;;24.50;;
9547;SDS011;4812;51.992;8.648;2022-11-20T10:38:50;28.33;;;25.43;;
9547;SDS011;4812;51.992;8.648;2022-11-20T10:41:23;28.20;;;25.20;;
9547;SDS011;4812;51.992;8.648;2022-11-20T10:43:53;29.17;;;26.13;;
9547;SDS011;4812;51.992;8.648;2022-11-20T10:46:29;28.60;;;25.70;;
9547;SDS011;4812;51.992;8.648;2022-11-20T10:49:04;29.17;;;26.17;;
9547;SDS011;4812;51.992;8.648;2022-11-20T10:51:37;28.90;;;25.30;;
9547;SDS011;4812;51.992;8.648;2022-11-20T10:54:11;26.80;;;24.20;;
9547;SDS011;4812;51.992;8.648;2022-11-20T10:56:46;27.17;;;24.33;;
9547;SDS011;4812;51.992;8.648;2022-11-20T10:59:28;25.90;;;23.40;;
9547;SDS011;4812;51.992;8.648;2022-11-20T11:02:19;27.30;;;24.50;;
9547;SDS011;4812;51.992;8.648;2022-11-20T11:04:49;30.90;;;24.87;;
9547;SDS011;4812;51.992;8.648;2022-11-20T11:07:19;28.23;;;25.33;;
9547;SDS011;4812;51.992;8.648;2022-11-20T11:09:50;28.03;;;25.23;;
9547;SDS011;4812;51.992;8.648;2022-11-20T11:12:18;26.63;;;24.17;;
9547;SDS011;4812;51.992;8.648;2022-11-20T11:14:47;30.80;;;27.50;;
9547;SDS011;4812;51.992;8.648;2022-11-20T11:17:27;28.57;;;25.27;;
9547;SDS011;4812;51.992;8.648;2022-11-20T11:19:59;29.57;;;25.97;;
9547;SDS011;4812;51.992;8.648;2022-11-20T11:22:27;29.27;;;26.20;;
9547;SDS011;4812;51.992;8.648;2022-11-20T11:24:56;29.30;;;26.30;;
9547;SDS011;4812;51.992;8.648;2022-11-20T11:27:23;28.77;;;25.77;;
9547;SDS011;4812;51.992;8.648;2022-11-20T11:30:00;31.87;;;27.57;;
9547;SDS011;4812;51.992;8.648;2022-11-20T11:32:32;30.43;;;27.27;;
9547;SDS011;4812;51.992;8.648;2022-11-20T11:35:00;30.27;;;27.23;;
9547;SDS011;4812;51.992;8.648;2022-11-20T11:37:29;30.83;;;27.17;;
9547;SDS011;4812;51.992;8.648;2022-11-20T11:40:00;30.40;;;27.23;;
9547;SDS011;4812;51.992;8.648;2022-11-20T11:42:52;30.40;;;27.13;;
9547;SDS011;4812;51.992;8.648;2022-11-20T11:45:21;29.70;;;26.67;;
9547;SDS011;4812;51.992;8.648;2022-11-20T11:47:50;31.73;;;28.47;;
9547;SDS011;4812;51.992;8.648;2022-11-20T11:50:19;31.23;;;27.80;;
9547;SDS011;4812;51.992;8.648;2022-11-20T11:52:54;30.57;;;27.33;;
9547;SDS011;4812;51.992;8.648;2022-11-20T11:55:28;32.23;;;28.77;;
9547;SDS011;4812;51.992;8.648;2022-11-20T11:58:01;30.03;;;26.83;;
9547;SDS011;4812;51.992;8.648;2022-11-20T12:00:36;30.00;;;24.40;;
9547;SDS011;4812;51.992;8.648;2022-11-20T12:03:08;29.73;;;26.70;;
9547;SDS011;4812;51.992;8.648;2022-11-20T12:05:42;29.73;;;26.60;;
9547;SDS011;4812;51.992;8.648;2022-11-20T12:08:12;28.87;;;25.77;;
9547;SDS011;4812;51.992;8.648;2022-11-20T12:10:43;28.40;;;25.60;;
9547;SDS011;4812;51.992;8.648;2022-11-20T12:13:20;27.10;;;24.33;;
9547;SDS011;4812;51.992;8.648;2022-11-20T12:15:51;28.37;;;25.57;;
9547;SDS011;4812;51.992;8.648;2022-11-20T12:18:21;26.70;;;24.20;;
9547;SDS011;4812;51.992;8.648;2022-11-20T12:20:53;26.17;;;23.63;;
9547;SDS011;4812;51.992;8.648;2022-11-20T12:23:31;27.00;;;24.57;;
9547;SDS011;4812;51.992;8.648;2022-11-20T12:26:04;28.03;;;25.33;;
9547;SDS011;4812;51.992;8.648;2022-11-20T12:28:41;27.53;;;25.03;;
9547;SDS011;4812;51.992;8.648;2022-11-20T12:31:19;27.00;;;24.60;;
9547;SDS011;4812;51.992;8.648;2022-11-20T12:34:07;26.80;;;24.00;;
9547;SDS011;4812;51.992;8.648;2022-11-20T12:36:50;26.57;;;24.00;;
9547;SDS011;4812;51.992;8.648;2022-11-20T12:42:17;26.47;;;23.87;;
9547;SDS011;4812;51.992;8.648;2022-11-20T12:50:56;26.93;;;24.33;;
9547;SDS011;4812;51.992;8.648;2022-11-20T12:53:42;25.30;;;22.97;;
9547;SDS011;4812;51.992;8.648;2022-11-20T12:56:18;25.37;;;23.10;;
9547;SDS011;4812;51.992;8.648;2022-11-20T12:58:58;25.50;;;23.30;;
9547;SDS011;4812;51.992;8.648;2022-11-20T13:01:31;26.20;;;23.60;;
9547;SDS011;4812;51.992;8.648;2022-11-20T13:04:12;25.60;;;23.17;;
9547;SDS011;4812;51.992;8.648;2022-11-20T13:06:47;25.97;;;23.57;;
9547;SDS011;4812;51.992;8.648;2022-11-20T13:09:15;25.13;;;22.87;;
9547;SDS011;4812;51.992;8.648;2022-11-20T13:11:47;25.83;;;23.30;;
9547;SDS011;4812;51.992;8.648;2022-11-20T13:14:23;26.30;;;23.73;;
9547;SDS011;4812;51.992;8.648;2022-11-20T13:16:54;27.13;;;24.37;;
9547;SDS011;4812;51.992;8.648;2022-11-20T13:19:31;26.00;;;23.53;;
9547;SDS011;4812;51.992;8.648;2022-11-20T13:22:00;26.63;;;24.17;;
9547;SDS011;4812;51.992;8.648;2022-11-20T13:24:28;27.20;;;24.90;;
9547;SDS011;4812;51.992;8.648;2022-11-20T13:30:02;26.73;;;24.03;;
9547;SDS011;4812;51.992;8.648;2022-11-20T13:32:47;26.43;;;24.00;;
9547;SDS011;4812;51.992;8.648;2022-11-20T13:35:23;25.10;;;22.80;;
9547;SDS011;4812;51.992;8.648;2022-11-20T13:38:00;25.77;;;23.17;;
9547;SDS011;4812;51.992;8.648;2022-11-20T13:40:33;27.97;;;25.17;;
9547;SDS011;4812;51.992;8.648;2022-11-20T13:43:15;27.87;;;25.27;;
9547;SDS011;4812;51.992;8.648;2022-11-20T13:45:59;26.90;;;24.40;;
9547;SDS011;4812;51.992;8.648;2022-11-20T13:48:29;27.57;;;24.73;;
9547;SDS011;4812;51.992;8.648;2022-11-20T13:51:07;28.23;;;25.43;;
9547;SDS011;4812;51.992;8.648;2022-11-20T13:53:46;27.80;;;25.23;;
9547;SDS011;4812;51.992;8.648;2022-11-20T13:56:23;28.17;;;25.47;;
9547;SDS011;4812;51.992;8.648;2022-11-20T13:58:54;28.00;;;25.37;;
9547;SDS011;4812;51.992;8.648;2022-11-20T14:01:30;28.60;;;25.70;;
9547;SDS011;4812;51.992;8.648;2022-11-20T14:03:58;29.50;;;26.23;;
9547;SDS011;4812;51.992;8.648;2022-11-20T14:06:34;27.87;;;25.33;;
9547;SDS011;4812;51.992;8.648;2022-11-20T14:09:11;28.77;;;25.90;;
9547;SDS011;4812;51.992;8.648;2022-11-20T14:11:45;28.40;;;25.60;;
9547;SDS011;4812;51.992;8.648;2022-11-20T14:14:14;27.33;;;24.53;;
9547;SDS011;4812;51.992;8.648;2022-11-20T14:16:43;28.20;;;25.47;;
9547;SDS011;4812;51.992;8.648;2022-11-20T14:19:22;29.23;;;26.10;;
9547;SDS011;4812;51.992;8.648;2022-11-20T14:21:52;28.17;;;25.33;;
9547;SDS011;4812;51.992;8.648;2022-11-20T14:24:23;29.30;;;26.17;;
9547;SDS011;4812;51.992;8.648;2022-11-20T14:26:51;29.77;;;26.47;;
9547;SDS011;4812;51.992;8.648;2022-11-20T14:29:20;27.13;;;24.33;;
9547;SDS011;4812;51.992;8.648;2022-11-20T14:31:52;32.23;;;26.87;;
9547;SDS011;4812;51.992;8.648;2022-11-20T14:34:21;29.43;;;26.50;;
9547;SDS011;4812;51.992;8.648;2022-11-20T14:36:50;31.13;;;27.07;;
9547;SDS011;4812;51.992;8.648;2022-11-20T14:39:29;29.97;;;26.77;;
9547;SDS011;4812;51.992;8.648;2022-11-20T14:41:58;29.50;;;26.33;;
9547;SDS011;4812;51.992;8.648;2022-11-20T14:44:26;27.17;;;24.43;;
9547;SDS011;4812;51.992;8.648;2022-11-20T14:46:57;29.60;;;26.53;;
9547;SDS011;4812;51.992;8.648;2022-11-20T14:49:25;30.27;;;27.17;;
9547;SDS011;4812;51.992;8.648;2022-11-20T14:51:58;24.80;;;22.30;;
9547;SDS011;4812;51.992;8.648;2022-11-20T14:54:27;34.10;;;26.10;;
9547;SDS011;4812;51.992;8.648;2022-11-20T14:56:57;29.20;;;26.10;;
9547;SDS011;4812;51.992;8.648;2022-11-20T14:59:26;33.13;;;26.33;;
9547;SDS011;4812;51.992;8.648;2022-11-20T15:01:56;29.73;;;26.30;;
9547;SDS011;4812;51.992;8.648;2022-11-20T15:04:25;30.13;;;26.50;;
9547;SDS011;4812;51.992;8.648;2022-11-20T15:06:53;26.83;;;24.03;;
9547;SDS011;4812;51.992;8.648;2022-11-20T15:09:22;28.80;;;25.33;;
9547;SDS011;4812;51.992;8.648;2022-11-20T15:11:53;28.60;;;25.70;;
9547;SDS011;4812;51.992;8.648;2022-11-20T15:14:22;29.17;;;26.23;;
9547;SDS011;4812;51.992;8.648;2022-11-20T15:16:51;27.77;;;24.77;;
9547;SDS011;4812;51.992;8.648;2022-11-20T15:19:20;28.30;;;25.43;;
9547;SDS011;4812;51.992;8.648;2022-11-20T15:21:50;27.90;;;25.03;;